Le Ponant — FGZZ — position and weather

sailwx.info

Track history (hours):
 
Tides and Currents Weather Stations Pressure Air Temp Water Temp Dewpoint Dewpoint Depression Visibility Wind Speed Wind Dir Waves Ship Positions

Le Ponant

Operator: Compangy des Iles du Ponant

Last reported at 2017-Apr-27 17:21 UTC. Time now 2017-Apr-27 18:48 UTC.
Position N 37°45' W 027°19'.

Length 84 m; draft 4.2 m.

Type: Passenger vessel. MMSI: 227186000.

Date/timePositionNaut miles runAvg speedWind from/ knotsBaromVisibWave heightAir tempDewpointWater temp
2017-Apr-27 17:21N 37°45' W 027°19'3 7.3
2017-Apr-27 17:00N 37°45' W 027°23'4 7.4
2017-Apr-27 16:30N 37°45' W 027°27'4 7.1
2017-Apr-27 16:00N 37°45' W 027°32'3 6.9
2017-Apr-27 15:30N 37°45' W 027°36'3 6.9
2017-Apr-27 15:00N 37°45' W 027°40'7 6.6
2017-Apr-27 14:00N 37°45' W 027°49'3 6.3
2017-Apr-27 13:30N 37°45' W 027°53'3 6.6
2017-Apr-27 13:00N 37°45' W 027°57'4 7.3
2017-Apr-27 12:30N 37°45' W 028°02'3 6.7
2017-Apr-27 12:01N 37°45' W 028°06'3 6.4
2017-Apr-27 11:30N 37°45' W 028°10'4 7.0
2017-Apr-27 11:00N 37°45' W 028°14'4 7.1
2017-Apr-27 10:31N 37°45' W 028°19'4 7.8
2017-Apr-27 10:00N 37°44' W 028°24'4 8.0
2017-Apr-27 09:30N 37°44' W 028°29'4 7.9
2017-Apr-27 09:01N 37°44' W 028°34'4 7.5
2017-Apr-27 08:31N 37°44' W 028°38'4 7.3
2017-Apr-27 08:00N 37°44' W 028°43'4 7.3
2017-Apr-27 07:30N 37°44' W 028°48'4 7.4
2017-Apr-27 07:00N 37°44' W 028°52'4 7.5
2017-Apr-27 06:30N 37°44' W 028°57'4 7.6
2017-Apr-27 06:00N 37°44' W 029°02'4 7.6
2017-Apr-27 05:30N 37°44' W 029°07'4 8.2
2017-Apr-27 05:00N 37°44' W 029°12'4 8.5
2017-Apr-27 04:30N 37°44' W 029°17'4 8.1
2017-Apr-27 04:01N 37°44' W 029°22'4 8.1
2017-Apr-27 03:30N 37°44' W 029°27'4 8.3
2017-Apr-27 03:00N 37°44' W 029°33'4 8.7
2017-Apr-27 02:30N 37°44' W 029°38'4 9.0
2017-Apr-27 02:01N 37°44' W 029°44'4 8.7
2017-Apr-27 01:30N 37°44' W 029°49'4 8.9
2017-Apr-27 01:00N 37°44' W 029°55'4 8.8
2017-Apr-27 00:30N 37°44' W 030°00'5 9.2
2017-Apr-27 00:00N 37°44' W 030°06'  
Track history (hours):
 
Tides and Currents Weather Stations Pressure Air Temp Water Temp Dewpoint Dewpoint Depression Visibility Wind Speed Wind Dir Waves Ship Positions

Le Ponant

Operator: Compangy des Iles du Ponant

Last reported at 2017-Apr-27 17:21 UTC. Time now 2017-Apr-27 18:48 UTC.
Position N 37°45' W 027°19'.

Length 84 m; draft 4.2 m.

Type: Passenger vessel. MMSI: 227186000.

Date/timePositionNaut miles runAvg speedWind from/ knotsBaromVisibWave heightAir tempDewpointWater temp
2017-Apr-27 17:21N 37°45' W 027°19'3 7.3
2017-Apr-27 17:00N 37°45' W 027°23'4 7.4
2017-Apr-27 16:30N 37°45' W 027°27'4 7.1
2017-Apr-27 16:00N 37°45' W 027°32'3 6.9
2017-Apr-27 15:30N 37°45' W 027°36'3 6.9
2017-Apr-27 15:00N 37°45' W 027°40'7 6.6
2017-Apr-27 14:00N 37°45' W 027°49'3 6.3
2017-Apr-27 13:30N 37°45' W 027°53'3 6.6
2017-Apr-27 13:00N 37°45' W 027°57'4 7.3
2017-Apr-27 12:30N 37°45' W 028°02'3 6.7
2017-Apr-27 12:01N 37°45' W 028°06'3 6.4
2017-Apr-27 11:30N 37°45' W 028°10'4 7.0
2017-Apr-27 11:00N 37°45' W 028°14'4 7.1
2017-Apr-27 10:31N 37°45' W 028°19'4 7.8
2017-Apr-27 10:00N 37°44' W 028°24'4 8.0
2017-Apr-27 09:30N 37°44' W 028°29'4 7.9
2017-Apr-27 09:01N 37°44' W 028°34'4 7.5
2017-Apr-27 08:31N 37°44' W 028°38'4 7.3
2017-Apr-27 08:00N 37°44' W 028°43'4 7.3
2017-Apr-27 07:30N 37°44' W 028°48'4 7.4
2017-Apr-27 07:00N 37°44' W 028°52'4 7.5
2017-Apr-27 06:30N 37°44' W 028°57'4 7.6
2017-Apr-27 06:00N 37°44' W 029°02'4 7.6
2017-Apr-27 05:30N 37°44' W 029°07'4 8.2
2017-Apr-27 05:00N 37°44' W 029°12'4 8.5
2017-Apr-27 04:30N 37°44' W 029°17'4 8.1
2017-Apr-27 04:01N 37°44' W 029°22'4 8.1
2017-Apr-27 03:30N 37°44' W 029°27'4 8.3
2017-Apr-27 03:00N 37°44' W 029°33'4 8.7
2017-Apr-27 02:30N 37°44' W 029°38'4 9.0
2017-Apr-27 02:01N 37°44' W 029°44'4 8.7
2017-Apr-27 01:30N 37°44' W 029°49'4 8.9
2017-Apr-27 01:00N 37°44' W 029°55'4 8.8
2017-Apr-27 00:30N 37°44' W 030°00'5 9.2
2017-Apr-27 00:00N 37°44' W 030°06'  

Dump ship's entire track history